Time;durP1;ratioP1;P1;durP2;ratioP2;P2;SDS_P1;SDS_P2;PMS_P1;PMS_P2;Temp;Humidity;BMP_temperature;BMP_pressure;BME280_temperature;BME280_humidity;BME280_pressure;Samples;Min_cycle;Max_cycle;Signal;HPM_P1;HPM_P2
2022/06/01 00:01:41;;;;;;;9.65;5.38;;;11.60;99.90;;;;;;5037812;28;20474;-72
2022/06/01 00:04:06;;;;;;;7.50;4.82;;;11.60;99.90;;;;;;5054849;28;20032;-71
2022/06/01 00:06:34;;;;;;;6.85;5.13;;;11.60;99.90;;;;;;5054267;28;20029;-71
2022/06/01 00:08:59;;;;;;;6.70;5.50;;;11.60;99.90;;;;;;5039270;28;20355;-71
2022/06/01 00:11:26;;;;;;;7.03;5.60;;;11.60;99.90;;;;;;5057755;28;20020;-71
2022/06/01 00:13:52;;;;;;;10.73;4.88;;;11.60;99.90;;;;;;5057355;28;20036;-71
2022/06/01 00:16:17;;;;;;;6.78;5.07;;;11.60;99.90;;;;;;5038775;28;20397;-70
2022/06/01 00:18:43;;;;;;;7.47;5.57;;;11.70;99.90;;;;;;5053886;28;20028;-72
2022/06/01 00:21:09;;;;;;;6.82;5.60;;;11.60;99.90;;;;;;5054233;28;20124;-72
2022/06/01 00:23:36;;;;;;;10.25;5.50;;;11.60;99.90;;;;;;5054660;28;20033;-71
2022/06/01 00:26:02;;;;;;;7.10;5.57;;;11.50;99.90;;;;;;5054551;28;20020;-71
2022/06/01 00:28:28;;;;;;;7.43;6.00;;;11.50;99.90;;;;;;5054810;28;20025;-72
2022/06/01 00:30:53;;;;;;;6.68;4.93;;;11.50;99.90;;;;;;5054731;28;20017;-71
2022/06/01 00:33:19;;;;;;;8.57;5.60;;;11.50;99.90;;;;;;5054282;28;20017;-71
2022/06/01 00:35:45;;;;;;;6.53;5.70;;;11.60;99.90;;;;;;5037532;28;20429;-72
2022/06/01 00:38:10;;;;;;;8.38;6.07;;;11.60;99.90;;;;;;5055401;28;20405;-72
2022/06/01 00:40:36;;;;;;;6.30;5.05;;;11.60;99.90;;;;;;5054780;28;20056;-71
2022/06/01 00:43:18;;;;;;;6.70;5.28;;;11.70;99.90;;;;;;5054375;28;20029;-71
2022/06/01 00:45:43;;;;;;;9.15;5.65;;;11.70;99.90;;;;;;5036285;28;20025;-71
2022/06/01 00:48:09;;;;;;;8.15;5.70;;;11.60;99.90;;;;;;5054509;28;20491;-71
2022/06/01 00:50:39;;;;;;;6.80;5.57;;;11.60;99.90;;;;;;5053987;28;20021;-71
2022/06/01 00:53:16;;;;;;;8.60;5.70;;;11.70;99.90;;;;;;5054601;28;20017;-71
2022/06/01 00:55:49;;;;;;;8.35;5.53;;;11.70;99.90;;;;;;5053278;28;20040;-71
2022/06/01 00:58:18;;;;;;;7.43;5.22;;;11.60;99.90;;;;;;5055130;28;20029;-71
2022/06/01 01:00:44;;;;;;;6.55;5.63;;;11.60;99.90;;;;;;5055148;28;20104;-71
2022/06/01 01:03:15;;;;;;;6.40;5.28;;;11.70;99.90;;;;;;5054224;28;20485;-71
2022/06/01 01:05:46;;;;;;;7.87;5.77;;;11.60;99.90;;;;;;5051156;28;20393;-72
2022/06/01 01:08:13;;;;;;;7.28;5.63;;;11.60;99.90;;;;;;5054335;28;20017;-72
2022/06/01 01:10:39;;;;;;;6.85;5.30;;;11.60;99.90;;;;;;5055072;28;20021;-72
2022/06/01 01:13:08;;;;;;;6.60;5.55;;;11.60;99.90;;;;;;5054769;28;20418;-71
2022/06/01 01:15:40;;;;;;;8.57;6.07;;;11.70;99.90;;;;;;5055210;28;20040;-71
2022/06/01 01:18:10;;;;;;;8.43;6.18;;;11.80;99.90;;;;;;5055074;28;20025;-71
2022/06/01 01:20:57;;;;;;;7.77;5.50;;;11.80;99.90;;;;;;5055322;28;20366;-71
2022/06/01 01:23:53;;;;;;;12.75;5.63;;;11.70;99.90;;;;;;5055615;28;20109;-71
2022/06/01 01:26:21;;;;;;;10.85;6.25;;;11.70;99.90;;;;;;5055737;28;20021;-71
2022/06/01 01:28:47;;;;;;;7.97;5.93;;;11.70;99.90;;;;;;5055352;28;20094;-71
2022/06/01 01:31:17;;;;;;;7.93;6.38;;;11.60;99.90;;;;;;5056641;28;20424;-71
2022/06/01 01:33:43;;;;;;;8.75;5.78;;;11.60;99.90;;;;;;5057418;28;20029;-71
2022/06/01 01:36:11;;;;;;;7.85;5.90;;;11.50;99.90;;;;;;5060740;28;20021;-71
2022/06/01 01:39:09;;;;;;;8.57;6.20;;;11.50;99.90;;;;;;5056872;28;20490;-71
2022/06/01 01:41:53;;;;;;;7.45;5.95;;;11.50;99.90;;;;;;5055451;28;20036;-72
2022/06/01 01:44:25;;;;;;;10.88;5.85;;;11.50;99.90;;;;;;5055780;28;20025;-71
2022/06/01 01:46:52;;;;;;;10.15;6.82;;;11.50;99.90;;;;;;5037098;28;20394;-71
2022/06/01 01:49:21;;;;;;;8.13;6.22;;;11.50;99.90;;;;;;5037145;28;20113;-71
2022/06/01 01:51:48;;;;;;;8.85;5.75;;;11.50;99.90;;;;;;5037135;28;20090;-71
2022/06/01 01:54:32;;;;;;;6.88;5.45;;;11.40;99.90;;;;;;5054795;28;20023;-71
2022/06/01 01:57:28;;;;;;;8.70;6.45;;;11.50;99.90;;;;;;5055231;28;20025;-71
2022/06/01 02:00:05;;;;;;;9.80;6.45;;;11.50;99.90;;;;;;5037343;28;20021;-72
2022/06/01 02:02:54;;;;;;;8.50;5.60;;;11.60;99.90;;;;;;5041734;28;20108;-71
2022/06/01 02:08:28;;;;;;;11.20;7.80;;;11.50;99.90;;;;;;5059454;28;20075;-71
2022/06/01 02:13:50;;;;;;;9.85;7.85;;;11.20;99.90;;;;;;5059548;28;20032;-70
2022/06/01 02:16:17;;;;;;;12.68;9.60;;;11.00;99.90;;;;;;5059549;28;20033;-70
2022/06/01 02:18:48;;;;;;;12.95;9.90;;;10.80;99.90;;;;;;5059874;28;20021;-70
2022/06/01 02:21:24;;;;;;;;;;;10.70;99.90;;;;;;5059945;28;20065;-70
2022/06/01 02:23:50;;;;;;;15.40;9.27;;;10.60;99.90;;;;;;5041763;28;20264;-70
2022/06/01 02:26:18;;;;;;;15.95;11.43;;;10.50;99.90;;;;;;5058786;28;20029;-70
2022/06/01 02:28:46;;;;;;;12.25;9.98;;;10.50;99.90;;;;;;5058368;28;20028;-70
2022/06/01 02:31:13;;;;;;;12.00;9.77;;;10.50;99.90;;;;;;5040571;28;20119;-70
2022/06/01 02:33:41;;;;;;;16.52;10.48;;;10.50;99.90;;;;;;5058922;28;20395;-71
2022/06/01 02:36:08;;;;;;;15.40;10.40;;;10.40;99.90;;;;;;5040210;28;20021;-70
2022/06/01 02:38:41;;;;;;;13.60;11.23;;;10.40;99.90;;;;;;5058416;28;20036;-71
2022/06/01 02:42:25;;;;;;;14.93;12.60;;;10.50;99.90;;;;;;5059374;28;20033;-71
2022/06/01 02:43:53;;;;;;;17.10;12.23;;;10.50;99.90;;;;;;5058773;28;20032;-71
2022/06/01 02:46:19;;;;;;;15.32;13.15;;;10.60;99.90;;;;;;5059514;28;20543;-71
2022/06/01 02:48:45;;;;;;;19.23;12.57;;;10.60;99.90;;;;;;5059163;28;20132;-70
2022/06/01 02:51:12;;;;;;;15.25;12.38;;;10.60;99.90;;;;;;5041348;28;20029;-71
2022/06/01 02:53:37;;;;;;;16.23;12.95;;;10.60;99.90;;;;;;5059784;28;20035;-70
2022/06/01 02:56:04;;;;;;;14.48;11.70;;;10.60;99.90;;;;;;5063146;28;20041;-70
2022/06/01 02:58:29;;;;;;;16.55;11.93;;;10.70;99.90;;;;;;5060291;28;20390;-71
2022/06/01 03:00:58;;;;;;;14.73;12.30;;;10.70;99.90;;;;;;5060477;28;20056;-71
2022/06/01 03:03:24;;;;;;;15.07;11.60;;;10.70;99.90;;;;;;5042651;28;20032;-70
2022/06/01 03:05:50;;;;;;;17.55;12.23;;;10.70;99.90;;;;;;5061783;28;20025;-70
2022/06/01 03:08:16;;;;;;;15.40;12.30;;;10.80;99.90;;;;;;5062444;28;20037;-71
2022/06/01 03:10:41;;;;;;;15.95;12.82;;;10.80;99.90;;;;;;5061186;28;20028;-71
2022/06/01 03:13:08;;;;;;;14.70;11.70;;;10.80;99.90;;;;;;5061598;28;20025;-70
2022/06/01 03:15:33;;;;;;;16.80;12.52;;;10.80;99.90;;;;;;5063071;28;20450;-70
2022/06/01 03:17:59;;;;;;;16.50;12.82;;;10.80;99.90;;;;;;5063411;28;20052;-70
2022/06/01 03:20:29;;;;;;;14.27;11.88;;;10.80;99.90;;;;;;5061708;28;20045;-70
2022/06/01 03:22:57;;;;;;;17.08;11.77;;;10.80;99.90;;;;;;5061816;28;20025;-71
2022/06/01 03:25:23;;;;;;;16.98;12.68;;;10.80;99.90;;;;;;5062122;28;20049;-70
2022/06/01 03:27:51;;;;;;;19.40;13.15;;;10.80;99.90;;;;;;5060994;28;20029;-71
2022/06/01 03:30:17;;;;;;;19.40;12.68;;;10.80;99.90;;;;;;5062163;28;20029;-70
2022/06/01 03:32:44;;;;;;;19.33;13.45;;;10.70;99.90;;;;;;5062595;28;20066;-71
2022/06/01 03:35:11;;;;;;;21.73;14.30;;;10.80;99.90;;;;;;5062071;28;20044;-71
2022/06/01 03:37:37;;;;;;;20.95;13.98;;;10.80;99.90;;;;;;5058365;28;20025;-71
2022/06/01 03:40:05;;;;;;;18.08;14.32;;;10.70;99.90;;;;;;5039298;28;20112;-71
2022/06/01 03:42:31;;;;;;;22.13;15.02;;;10.70;99.90;;;;;;5040234;28;20033;-70
2022/06/01 03:47:41;;;;;;;22.25;16.40;;;10.80;99.90;;;;;;5059110;28;20548;-70
2022/06/01 03:50:08;;;;;;;22.05;16.50;;;10.70;99.90;;;;;;5057456;28;20029;-71
2022/06/01 03:52:34;;;;;;;22.05;15.73;;;10.70;99.90;;;;;;5057610;28;20021;-70
2022/06/01 03:55:00;;;;;;;22.70;16.10;;;10.70;99.90;;;;;;5039438;28;20064;-70
2022/06/01 03:57:26;;;;;;;21.42;15.45;;;10.70;99.90;;;;;;5057394;28;20021;-70
2022/06/01 03:59:51;;;;;;;21.83;16.33;;;10.70;99.90;;;;;;5039624;28;20028;-71
2022/06/01 04:02:17;;;;;;;19.10;14.88;;;10.70;99.90;;;;;;5041347;28;20052;-72
2022/06/01 04:04:42;;;;;;;21.27;16.17;;;10.60;99.90;;;;;;5058178;28;20033;-72
2022/06/01 04:07:08;;;;;;;21.95;15.98;;;10.70;99.90;;;;;;5058076;28;20505;-74
2022/06/01 04:09:33;;;;;;;19.92;16.02;;;10.70;99.90;;;;;;5058541;28;20522;-74
2022/06/01 04:11:59;;;;;;;22.35;15.60;;;10.70;99.90;;;;;;5058878;28;20059;-73
2022/06/01 04:14:25;;;;;;;22.35;16.30;;;10.70;99.90;;;;;;5058589;28;20017;-72
2022/06/01 04:16:51;;;;;;;25.95;15.82;;;10.60;99.90;;;;;;5056771;28;20056;-71
2022/06/01 04:19:16;;;;;;;26.88;17.10;;;10.70;99.90;;;;;;5038853;28;20021;-71
2022/06/01 04:21:46;;;;;;;22.67;16.10;;;10.70;99.90;;;;;;5056830;28;20559;-71
2022/06/01 04:24:15;;;;;;;23.45;16.67;;;10.70;99.90;;;;;;5057651;28;20021;-71
2022/06/01 04:26:41;;;;;;;22.85;16.40;;;10.80;99.90;;;;;;5039636;28;20033;-72
2022/06/01 04:29:07;;;;;;;23.02;16.45;;;10.80;99.90;;;;;;5056933;28;20048;-71
2022/06/01 04:31:33;;;;;;;23.20;16.90;;;10.80;99.90;;;;;;5038528;28;20028;-71
2022/06/01 04:33:59;;;;;;;25.67;16.52;;;10.80;99.90;;;;;;5056510;28;20138;-71
2022/06/01 04:36:25;;;;;;;22.85;15.88;;;10.80;99.90;;;;;;5056808;28;20025;-71
2022/06/01 04:38:50;;;;;;;20.30;15.63;;;10.80;99.90;;;;;;5076629;22;20421;-50
2022/06/01 04:41:16;;;;;;;23.35;15.75;;;10.90;99.90;;;;;;5053731;28;20449;-52
2022/06/01 04:43:41;;;;;;;22.90;16.00;;;10.90;99.90;;;;;;5054003;28;20020;-53
2022/06/01 04:46:07;;;;;;;25.60;16.67;;;11.00;99.90;;;;;;5053983;28;20414;-51
2022/06/01 04:48:32;;;;;;;23.20;15.60;;;11.00;99.90;;;;;;5053744;28;20116;-48
2022/06/01 04:50:58;;;;;;;23.40;15.68;;;11.10;99.90;;;;;;5053670;28;20060;-48
2022/06/01 04:53:24;;;;;;;21.10;15.88;;;11.20;99.90;;;;;;5054321;28;20020;-48
2022/06/01 04:55:50;;;;;;;22.15;16.17;;;11.20;99.90;;;;;;5053728;28;20036;-47
2022/06/01 04:58:16;;;;;;;18.75;15.73;;;11.30;99.90;;;;;;5053630;28;20028;-52
2022/06/01 05:00:44;;;;;;;23.17;14.82;;;11.20;99.90;;;;;;5053520;28;20029;-50
2022/06/01 05:03:10;;;;;;;18.35;14.98;;;11.20;99.90;;;;;;5053768;28;20025;-50
2022/06/01 05:05:37;;;;;;;21.88;15.27;;;11.30;99.90;;;;;;5053993;28;20021;-49
2022/06/01 05:08:03;;;;;;;18.98;15.23;;;11.40;99.90;;;;;;5054055;28;20089;-47
2022/06/01 05:10:29;;;;;;;20.17;15.32;;;11.50;99.90;;;;;;5053827;28;20488;-49
2022/06/01 05:12:55;;;;;;;21.20;15.45;;;11.70;99.90;;;;;;5035556;28;20088;-47
2022/06/01 05:15:20;;;;;;;16.83;13.68;;;11.70;99.90;;;;;;5053298;28;20150;-51
2022/06/01 05:17:46;;;;;;;18.23;13.93;;;11.70;99.90;;;;;;5053183;28;20498;-51
2022/06/01 05:20:13;;;;;;;15.35;12.82;;;11.70;99.90;;;;;;5035273;28;20021;-52
2022/06/01 05:22:39;;;;;;;16.80;13.07;;;11.60;99.90;;;;;;5054320;28;20037;-49
2022/06/01 05:25:06;;;;;;;19.05;14.50;;;11.60;99.90;;;;;;5054576;28;20013;-53
2022/06/01 05:27:31;;;;;;;18.75;14.15;;;11.60;99.90;;;;;;5054390;28;20021;-53
2022/06/01 05:29:57;;;;;;;17.13;14.05;;;11.60;99.90;;;;;;5054215;28;20079;-54
2022/06/01 05:32:23;;;;;;;20.27;15.40;;;11.70;99.90;;;;;;5054201;28;20029;-51
2022/06/01 05:34:49;;;;;;;19.85;14.82;;;11.70;99.90;;;;;;5053417;28;20028;-53
2022/06/01 05:37:14;;;;;;;20.33;15.80;;;11.80;99.90;;;;;;5035652;28;20493;-52
2022/06/01 05:39:40;;;;;;;17.38;14.15;;;11.90;99.90;;;;;;5053612;28;20112;-49
2022/06/01 05:42:06;;;;;;;20.77;15.23;;;11.90;99.90;;;;;;5053468;28;20052;-52
2022/06/01 05:44:32;;;;;;;20.80;15.10;;;11.90;99.90;;;;;;5053861;28;20401;-49
2022/06/01 05:46:59;;;;;;;16.65;13.15;;;12.00;99.90;;;;;;5053383;28;20029;-49
2022/06/01 05:49:26;;;;;;;18.92;13.18;;;12.00;99.90;;;;;;5053190;28;20398;-51
2022/06/01 05:51:51;;;;;;;16.73;13.32;;;12.00;99.90;;;;;;5053097;28;20032;-50
2022/06/01 05:54:19;;;;;;;19.10;12.70;;;12.00;99.90;;;;;;5055730;28;20021;-50
2022/06/01 05:56:44;;;;;;;16.25;13.32;;;12.00;99.90;;;;;;5053141;28;20053;-49
2022/06/01 05:59:11;;;;;;;17.55;12.85;;;12.00;99.90;;;;;;5053303;28;20061;-49
2022/06/01 06:01:37;;;;;;;16.33;12.32;;;12.00;99.90;;;;;;5053022;28;20390;-50
2022/06/01 06:04:03;;;;;;;19.23;13.30;;;12.00;99.90;;;;;;5052778;28;20484;-46
2022/06/01 06:06:29;;;;;;;17.92;12.75;;;12.10;99.90;;;;;;5054041;28;20029;-47
2022/06/01 06:09:00;;;;;;;14.70;13.20;;;12.10;99.90;;;;;;5053072;28;20111;-50
2022/06/01 06:11:28;;;;;;;18.15;13.48;;;12.20;99.90;;;;;;5052399;28;20029;-49
2022/06/01 06:13:54;;;;;;;14.60;12.27;;;12.20;99.90;;;;;;5052640;28;20037;-49
2022/06/01 06:16:20;;;;;;;17.35;12.73;;;12.30;99.90;;;;;;5052901;28;20021;-48
2022/06/01 06:18:46;;;;;;;15.07;12.57;;;12.40;99.90;;;;;;5052388;28;20071;-51
2022/06/01 06:21:12;;;;;;;18.92;12.82;;;12.40;99.90;;;;;;5052728;28;20392;-46
2022/06/01 06:23:38;;;;;;;15.15;11.32;;;12.40;99.90;;;;;;5052359;28;20029;-49
2022/06/01 06:26:05;;;;;;;14.82;11.90;;;12.40;99.90;;;;;;5052338;28;20033;-49
2022/06/01 06:28:31;;;;;;;15.63;12.77;;;12.50;99.90;;;;;;5052175;28;20025;-47
2022/06/01 06:30:57;;;;;;;15.45;11.45;;;12.50;99.90;;;;;;5052484;28;20021;-46
2022/06/01 06:33:22;;;;;;;17.90;13.00;;;12.50;99.90;;;;;;5052488;28;20397;-47
2022/06/01 06:36:03;;;;;;;14.32;12.32;;;12.50;99.90;;;;;;5052566;28;20029;-48
2022/06/01 06:38:30;;;;;;;15.73;12.33;;;12.60;99.90;;;;;;5052102;28;20032;-49
2022/06/01 06:40:58;;;;;;;18.90;12.23;;;12.60;99.90;;;;;;5034325;28;20028;-47
2022/06/01 06:43:25;;;;;;;18.80;12.23;;;12.60;99.90;;;;;;5052101;28;20029;-49
2022/06/01 06:45:55;;;;;;;18.73;13.57;;;12.60;99.90;;;;;;5052442;28;20029;-48
2022/06/01 06:48:20;;;;;;;15.93;12.38;;;12.70;99.90;;;;;;5055448;28;20025;-47
2022/06/01 06:50:46;;;;;;;15.63;11.65;;;12.70;99.90;;;;;;5055823;28;20071;-50
2022/06/01 06:53:12;;;;;;;16.40;12.82;;;12.70;99.90;;;;;;5055739;28;20028;-47
2022/06/01 06:55:37;;;;;;;14.90;12.45;;;12.70;99.90;;;;;;5054760;28;20116;-49
2022/06/01 06:58:05;;;;;;;16.30;13.10;;;12.70;99.90;;;;;;5054083;28;20025;-50
2022/06/01 07:00:31;;;;;;;15.68;12.73;;;12.70;99.90;;;;;;5054725;28;20099;-52
2022/06/01 07:02:56;;;;;;;17.75;12.85;;;12.70;99.90;;;;;;5056142;28;20116;-48
2022/06/01 07:08:06;;;;;;;18.75;13.48;;;12.70;99.90;;;;;;5056101;28;20036;-50
2022/06/01 07:10:32;;;;;;;17.08;14.05;;;12.80;99.90;;;;;;5055520;28;20021;-49
2022/06/01 07:12:57;;;;;;;21.67;15.45;;;12.70;99.90;;;;;;5055359;28;20024;-47
2022/06/01 07:15:23;;;;;;;21.25;15.00;;;12.80;99.90;;;;;;5055794;28;20441;-51
2022/06/01 07:17:48;;;;;;;23.08;15.88;;;12.70;99.90;;;;;;5037558;28;20071;-50
2022/06/01 07:20:14;;;;;;;19.58;15.82;;;12.80;99.90;;;;;;5055774;28;20021;-51
2022/06/01 07:22:40;;;;;;;25.17;18.75;;;12.80;99.90;;;;;;5055379;28;20028;-49
2022/06/01 07:25:05;;;;;;;21.95;17.30;;;12.90;99.90;;;;;;5055492;28;20431;-50
2022/06/01 07:27:31;;;;;;;23.10;17.75;;;12.90;99.90;;;;;;5055281;28;20028;-51
2022/06/01 07:29:56;;;;;;;22.80;16.52;;;12.90;99.90;;;;;;5055440;28;20055;-49
2022/06/01 07:32:24;;;;;;;26.90;19.73;;;13.00;99.90;;;;;;5055054;28;20497;-47
2022/06/01 07:34:49;;;;;;;29.17;20.13;;;13.10;99.90;;;;;;5055043;28;20025;-51
2022/06/01 07:43:06;;;;;;;28.17;20.30;;;13.30;99.90;;;;;;5055382;28;20035;-49
2022/06/01 07:45:44;;;;;;;25.27;19.58;;;13.40;99.90;;;;;;5037001;28;20032;-48
2022/06/01 07:48:10;;;;;;;25.27;19.20;;;13.70;99.90;;;;;;5054936;28;20482;-50
2022/06/01 07:50:36;;;;;;;25.52;19.33;;;13.70;99.90;;;;;;5054985;28;20021;-48
2022/06/01 07:53:05;;;;;;;25.83;20.65;;;13.70;99.90;;;;;;5054631;28;20071;-49
2022/06/01 07:55:31;;;;;;;27.30;20.92;;;13.80;99.90;;;;;;5054726;28;20082;-49
2022/06/01 07:57:57;;;;;;;30.90;21.30;;;13.90;99.90;;;;;;5053864;28;20021;-49
2022/06/01 08:00:23;;;;;;;27.17;20.60;;;13.90;99.90;;;;;;5036533;28;20029;-49
2022/06/01 08:02:48;;;;;;;28.73;20.85;;;13.90;99.90;;;;;;5054489;28;20121;-50
2022/06/01 08:05:17;;;;;;;29.80;20.13;;;14.00;99.90;;;;;;5055115;28;20382;-48
2022/06/01 08:07:44;;;;;;;26.33;20.08;;;14.10;99.90;;;;;;5054620;28;20367;-49
2022/06/01 08:10:11;;;;;;;26.08;21.08;;;14.20;99.90;;;;;;5054387;28;20025;-49
2022/06/01 08:15:22;;;;;;;26.13;20.25;;;14.30;99.90;;;;;;5054428;28;20079;-51
2022/06/01 08:17:48;;;;;;;26.45;21.52;;;14.30;99.90;;;;;;5054547;28;20104;-51
2022/06/01 08:20:14;;;;;;;28.33;22.00;;;14.30;99.90;;;;;;5054336;28;20017;-52
2022/06/01 08:22:40;;;;;;;28.92;21.35;;;14.40;99.90;;;;;;5054110;28;20098;-48
2022/06/01 08:25:07;;;;;;;27.30;19.70;;;14.50;99.90;;;;;;5054052;28;20478;-48
2022/06/01 08:27:33;;;;;;;29.85;21.02;;;14.60;99.90;;;;;;5054333;28;20025;-47
2022/06/01 08:29:58;;;;;;;28.10;21.90;;;14.60;99.90;;;;;;5054299;28;20394;-50
2022/06/01 08:32:24;;;;;;;25.35;19.50;;;14.70;99.90;;;;;;5054089;28;20032;-48
2022/06/01 08:34:50;;;;;;;24.98;19.65;;;14.80;99.90;;;;;;5053907;28;20017;-47
2022/06/01 08:37:16;;;;;;;26.58;21.63;;;15.00;99.90;;;;;;5053805;28;20025;-49
2022/06/01 08:39:42;;;;;;;27.30;21.13;;;15.10;99.90;;;;;;5054214;28;20028;-53
2022/06/01 08:42:12;;;;;;;30.20;21.63;;;15.20;99.90;;;;;;5056190;28;20052;-46
2022/06/01 08:44:41;;;;;;;26.60;22.08;;;15.20;99.90;;;;;;5039101;28;20441;-49
2022/06/01 08:47:10;;;;;;;27.25;21.27;;;15.30;99.90;;;;;;5055754;28;20508;-50
2022/06/01 08:49:38;;;;;;;26.83;22.63;;;15.30;99.90;;;;;;5054589;28;20029;-49
2022/06/01 08:52:05;;;;;;;28.67;22.55;;;15.30;99.90;;;;;;5054445;28;20067;-49
2022/06/01 08:54:31;;;;;;;26.92;21.75;;;15.30;99.90;;;;;;5054068;28;20025;-52
2022/06/01 08:57:14;;;;;;;26.85;22.90;;;15.20;99.90;;;;;;5036498;28;20017;-50
2022/06/01 09:00:01;;;;;;;31.55;23.63;;;15.30;99.90;;;;;;5053871;28;20486;-49
2022/06/01 09:02:44;;;;;;;26.90;21.83;;;15.30;99.90;;;;;;5053772;28;20112;-50
2022/06/01 09:05:13;;;;;;;26.27;22.10;;;15.20;99.90;;;;;;5053644;28;20052;-48
2022/06/01 09:07:52;;;;;;;32.42;24.05;;;15.00;99.90;;;;;;5053450;28;20029;-49
2022/06/01 09:10:30;;;;;;;30.90;24.70;;;14.80;99.90;;;;;;5053564;28;20029;-48
2022/06/01 09:13:14;;;;;;;31.35;25.85;;;14.70;99.90;;;;;;5053529;28;20494;-48
2022/06/01 09:15:54;;;;;;;40.85;28.70;;;14.50;99.90;;;;;;5053659;28;20478;-50
2022/06/01 09:18:25;;;;;;;45.10;31.23;;;14.40;99.90;;;;;;5053507;28;20444;-50
2022/06/01 09:23:35;;;;;;;42.08;31.35;;;14.00;99.90;;;;;;5053434;28;20397;-50
2022/06/01 09:26:03;;;;;;;51.38;32.92;;;13.90;99.90;;;;;;5053201;28;20060;-53
2022/06/01 09:28:29;;;;;;;52.13;31.90;;;13.70;99.90;;;;;;5052946;28;20033;-49
2022/06/01 09:31:23;;;;;;;55.25;35.42;;;13.50;99.90;;;;;;5034802;28;20120;-50
2022/06/01 09:33:49;;;;;;;62.25;35.10;;;13.30;99.90;;;;;;5041929;28;20076;-50
2022/06/01 09:36:26;;;;;;;57.97;36.25;;;13.00;99.90;;;;;;5053091;28;20021;-50
2022/06/01 09:38:58;;;;;;;50.10;33.38;;;12.70;99.90;;;;;;5049840;28;20048;-52
2022/06/01 09:41:31;;;;;;;37.33;27.92;;;12.40;99.90;;;;;;5052717;28;20028;-47
2022/06/01 09:44:02;;;;;;;42.47;28.65;;;12.20;99.90;;;;;;5053008;28;20112;-47
2022/06/01 09:46:56;;;;;;;39.85;27.00;;;12.00;99.90;;;;;;5052009;28;20558;-48
2022/06/01 09:49:33;;;;;;;39.22;28.33;;;11.80;99.90;;;;;;5051543;28;20037;-49
2022/06/01 09:52:11;;;;;;;43.40;31.15;;;11.70;99.90;;;;;;5052784;28;20079;-49
2022/06/01 09:54:43;;;;;;;50.50;35.85;;;11.80;99.90;;;;;;5050439;28;20036;-47
2022/06/01 09:57:18;;;;;;;55.70;39.35;;;11.80;99.90;;;;;;5024066;28;20029;-47
2022/06/01 10:08:19;;;;;;;52.92;39.30;;;13.20;99.90;;;;;;5042597;28;20039;-50
2022/06/01 10:11:19;;;;;;;50.85;37.08;;;13.50;99.90;;;;;;5052531;28;20116;-48
2022/06/01 10:13:52;;;;;;;50.42;35.67;;;13.70;99.90;;;;;;5033134;28;20047;-47
2022/06/01 10:16:55;;;;;;;49.20;35.78;;;13.90;99.90;;;;;;5051317;28;20096;-47
2022/06/01 10:19:31;;;;;;;47.00;33.17;;;13.90;99.90;;;;;;5034396;28;20025;-48
2022/06/01 10:22:20;;;;;;;49.13;36.42;;;13.90;99.90;;;;;;5053831;28;20029;-48
2022/06/01 10:24:57;;;;;;;45.95;35.40;;;13.80;99.90;;;;;;5054534;28;20024;-50
2022/06/01 10:27:29;;;;;;;49.92;36.92;;;13.80;99.90;;;;;;5054262;28;20021;-47
2022/06/01 10:30:07;;;;;;;40.70;32.42;;;13.70;99.90;;;;;;5055563;28;20436;-51
2022/06/01 10:32:50;;;;;;;31.25;23.92;;;13.60;99.90;;;;;;5043483;28;20021;-48
2022/06/01 10:35:25;;;;;;;21.65;16.98;;;13.50;99.90;;;;;;5056543;28;20024;-47
2022/06/01 10:40:53;;;;;;;16.73;11.13;;;13.30;99.90;;;;;;5068109;28;20041;-49
2022/06/01 10:43:30;;;;;;;12.55;9.73;;;13.20;99.90;;;;;;5018501;28;20040;-51
2022/06/01 10:46:03;;;;;;;11.07;8.48;;;13.10;99.90;;;;;;5043393;28;20394;-49
2022/06/01 10:48:35;;;;;;;9.10;8.18;;;13.10;99.90;;;;;;5055220;28;20029;-50
2022/06/01 10:51:16;;;;;;;11.50;8.20;;;13.00;99.90;;;;;;5052110;28;20366;-52
2022/06/01 10:53:59;;;;;;;14.55;10.57;;;13.00;99.90;;;;;;5050259;28;20063;-50
2022/06/01 10:56:26;;;;;;;14.88;10.70;;;12.90;99.90;;;;;;5040806;28;20028;-51
2022/06/01 10:58:55;;;;;;;15.95;9.57;;;12.80;99.90;;;;;;5054492;28;20371;-51
2022/06/01 11:01:51;;;;;;;10.50;8.57;;;12.80;99.90;;;;;;5056413;28;20029;-50
2022/06/01 11:04:47;;;;;;;9.60;8.43;;;12.80;99.90;;;;;;5030043;28;20037;-49
2022/06/01 11:07:41;;;;;;;7.35;6.63;;;12.80;99.90;;;;;;5054452;28;20040;-48
2022/06/01 11:10:51;;;;;;;8.48;7.57;;;12.70;99.90;;;;;;5051282;28;20021;-49
2022/06/01 11:13:41;;;;;;;12.60;11.23;;;12.70;99.90;;;;;;5011538;28;20033;-51
2022/06/01 11:16:21;;;;;;;14.90;11.07;;;12.90;99.90;;;;;;5036127;28;20091;-49
2022/06/01 11:19:24;;;;;;;15.52;12.57;;;13.00;99.90;;;;;;5046594;28;20178;-49
2022/06/01 11:22:06;;;;;;;22.02;15.48;;;13.20;99.90;;;;;;5036087;28;20021;-50
2022/06/01 11:25:03;;;;;;;19.52;16.52;;;13.30;99.90;;;;;;5052284;28;20025;-48
2022/06/01 11:27:55;;;;;;;16.83;13.15;;;13.50;99.90;;;;;;5055320;28;20032;-51
2022/06/01 11:30:24;;;;;;;15.38;11.18;;;13.80;99.90;;;;;;5052765;28;20409;-48
2022/06/01 11:33:27;;;;;;;10.23;9.15;;;14.10;99.90;;;;;;5053776;28;20120;-48
2022/06/01 11:36:08;;;;;;;10.57;8.88;;;14.40;99.90;;;;;;5051094;28;20053;-49
2022/06/01 11:38:44;;;;;;;9.70;7.60;;;14.60;99.90;;;;;;5047123;28;20210;-49
2022/06/01 11:41:17;;;;;;;9.93;6.68;;;14.60;99.90;;;;;;5045382;28;20079;-50
2022/06/01 11:43:55;;;;;;;9.02;5.40;;;14.70;99.90;;;;;;5037522;28;20371;-51
2022/06/01 11:46:38;;;;;;;8.35;5.93;;;14.80;99.90;;;;;;5036375;28;20035;-50
2022/06/01 11:49:13;;;;;;;7.50;6.68;;;14.90;99.90;;;;;;5052679;28;20075;-51
2022/06/01 11:51:38;;;;;;;9.23;7.68;;;14.90;99.90;;;;;;5051818;28;20025;-52
2022/06/01 11:54:08;;;;;;;9.48;7.72;;;14.90;99.90;;;;;;5033665;28;20027;-52
2022/06/01 11:56:45;;;;;;;9.68;7.75;;;14.80;99.90;;;;;;5046667;28;20090;-54
2022/06/01 11:59:32;;;;;;;9.23;8.20;;;14.70;99.90;;;;;;5050107;28;20017;-52
2022/06/01 12:02:00;;;;;;;12.23;10.93;;;14.70;99.90;;;;;;5050825;28;20040;-50
2022/06/01 12:04:52;;;;;;;14.55;11.70;;;14.60;99.90;;;;;;5052181;28;20052;-50
2022/06/01 12:07:33;;;;;;;11.90;10.57;;;14.50;99.90;;;;;;5048432;28;20029;-51
2022/06/01 12:10:00;;;;;;;10.25;8.60;;;14.60;99.90;;;;;;5048843;28;20085;-52
2022/06/01 12:12:32;;;;;;;8.40;7.60;;;14.70;99.90;;;;;;5052254;28;20029;-49
2022/06/01 12:15:19;;;;;;;7.47;6.65;;;14.80;99.90;;;;;;5053050;28;20029;-49
2022/06/01 12:18:14;;;;;;;6.10;5.50;;;15.00;99.90;;;;;;5053756;28;20108;-50
2022/06/01 12:20:40;;;;;;;6.20;5.60;;;15.30;99.90;;;;;;5048128;28;20048;-50
2022/06/01 12:28:56;;;;;;;7.00;6.30;;;15.80;99.90;;;;;;5052216;28;20040;-52
2022/06/01 12:31:30;;;;;;;7.50;5.97;;;16.00;99.90;;;;;;5052331;28;20028;-52
2022/06/01 12:34:17;;;;;;;7.40;5.72;;;16.20;99.90;;;;;;5053614;28;20021;-50
2022/06/01 12:36:54;;;;;;;7.95;5.22;;;16.50;99.90;;;;;;5051617;28;20024;-50
2022/06/01 12:39:55;;;;;;;7.10;5.57;;;16.50;99.90;;;;;;5033776;28;20155;-52
2022/06/01 12:42:47;;;;;;;5.53;5.03;;;16.60;99.90;;;;;;5051600;28;20035;-50
2022/06/01 12:45:19;;;;;;;4.88;4.38;;;16.40;99.90;;;;;;5049082;28;20021;-51
2022/06/01 12:47:57;;;;;;;7.50;5.03;;;16.40;99.90;;;;;;5049810;28;20166;-50
2022/06/01 12:50:27;;;;;;;5.40;4.10;;;16.40;99.90;;;;;;5052923;28;20040;-49
2022/06/01 12:53:48;;;;;;;5.40;3.88;;;16.40;99.90;;;;;;5051638;28;20096;-52
2022/06/01 12:56:16;;;;;;;4.75;4.32;;;16.50;99.90;;;;;;4991692;28;20030;-51
2022/06/01 12:58:44;;;;;;;5.30;4.30;;;16.60;99.90;;;;;;5048640;28;20354;-50
2022/06/01 13:01:10;;;;;;;6.43;3.42;;;16.60;99.90;;;;;;5035408;28;20398;-50
2022/06/01 13:03:46;;;;;;;4.40;3.42;;;16.70;99.90;;;;;;5052993;28;20029;-54
2022/06/01 13:06:16;;;;;;;6.75;3.90;;;16.80;99.90;;;;;;5050831;28;20036;-50
2022/06/01 13:08:42;;;;;;;4.22;3.65;;;16.90;99.90;;;;;;5050049;28;20024;-53
2022/06/01 13:11:32;;;;;;;4.90;4.40;;;16.90;99.90;;;;;;5052800;28;20032;-51
2022/06/01 13:13:59;;;;;;;3.58;3.28;;;16.90;99.90;;;;;;5053643;28;20067;-51
2022/06/01 13:16:37;;;;;;;5.18;2.70;;;16.90;99.90;;;;;;5052051;28;20100;-53
2022/06/01 13:19:32;;;;;;;3.70;3.40;;;16.90;99.90;;;;;;5050434;28;20025;-51
2022/06/01 13:22:19;;;;;;;3.38;3.08;;;16.90;99.90;;;;;;5037994;28;20029;-51
2022/06/01 13:24:54;;;;;;;4.30;3.90;;;16.80;99.90;;;;;;5049814;28;20032;-52
2022/06/01 13:27:20;;;;;;;5.15;3.60;;;16.80;99.90;;;;;;5052002;28;20383;-51
2022/06/01 13:29:49;;;;;;;6.28;4.35;;;16.60;99.90;;;;;;5052919;28;20060;-51
2022/06/01 13:32:30;;;;;;;5.20;4.70;;;16.60;99.90;;;;;;5051057;28;20017;-54
2022/06/01 13:35:17;;;;;;;7.30;4.80;;;16.60;99.90;;;;;;5053297;28;20028;-53